sensor_id;sensor_type;location;lat;lon;timestamp;pressure;altitude;pressure_sealevel;temperature;humidity
76260;BME280;65076;52.362;6.588;2022-12-18T00:00:07;102943.38;;;-2.24;75.85
76260;BME280;65076;52.362;6.588;2022-12-18T00:02:36;102929.97;;;-2.50;77.33
76260;BME280;65076;52.362;6.588;2022-12-18T00:05:06;102934.09;;;-2.81;77.29
76260;BME280;65076;52.362;6.588;2022-12-18T00:07:35;102934.00;;;-2.82;77.08
76260;BME280;65076;52.362;6.588;2022-12-18T00:10:04;102927.53;;;-2.68;77.33
76260;BME280;65076;52.362;6.588;2022-12-18T00:12:32;102932.44;;;-2.77;77.24
76260;BME280;65076;52.362;6.588;2022-12-18T00:15:03;102940.59;;;-2.73;77.54
76260;BME280;65076;52.362;6.588;2022-12-18T00:17:31;102936.00;;;-2.32;76.77
76260;BME280;65076;52.362;6.588;2022-12-18T00:19:59;102935.69;;;-2.40;75.74
76260;BME280;65076;52.362;6.588;2022-12-18T00:22:27;102928.97;;;-2.54;76.73
76260;BME280;65076;52.362;6.588;2022-12-18T00:24:55;102937.22;;;-2.69;76.31
76260;BME280;65076;52.362;6.588;2022-12-18T00:27:23;102935.91;;;-2.80;77.66
76260;BME280;65076;52.362;6.588;2022-12-18T00:29:51;102934.94;;;-3.25;78.18
76260;BME280;65076;52.362;6.588;2022-12-18T00:32:20;102932.28;;;-2.82;78.14
76260;BME280;65076;52.362;6.588;2022-12-18T00:34:48;102936.00;;;-2.77;77.34
76260;BME280;65076;52.362;6.588;2022-12-18T00:37:16;102922.16;;;-2.70;77.37
76260;BME280;65076;52.362;6.588;2022-12-18T00:39:47;102923.19;;;-2.66;76.88
76260;BME280;65076;52.362;6.588;2022-12-18T00:42:15;102925.09;;;-3.07;77.67
76260;BME280;65076;52.362;6.588;2022-12-18T00:45:01;102922.66;;;-3.23;78.00
76260;BME280;65076;52.362;6.588;2022-12-18T00:47:39;102926.59;;;-3.55;79.49
76260;BME280;65076;52.362;6.588;2022-12-18T00:50:08;102932.88;;;-3.53;80.11
76260;BME280;65076;52.362;6.588;2022-12-18T00:52:37;102929.06;;;-3.18;78.49
76260;BME280;65076;52.362;6.588;2022-12-18T00:55:05;102926.81;;;-3.50;79.67
76260;BME280;65076;52.362;6.588;2022-12-18T00:57:34;102935.19;;;-3.60;79.53
76260;BME280;65076;52.362;6.588;2022-12-18T01:00:03;102921.66;;;-3.26;79.54
76260;BME280;65076;52.362;6.588;2022-12-18T01:02:31;102927.69;;;-3.70;79.22
76260;BME280;65076;52.362;6.588;2022-12-18T01:05:01;102921.56;;;-3.28;79.06
76260;BME280;65076;52.362;6.588;2022-12-18T01:07:29;102905.97;;;-3.43;79.43
76260;BME280;65076;52.362;6.588;2022-12-18T01:09:57;102908.94;;;-3.14;78.18
76260;BME280;65076;52.362;6.588;2022-12-18T01:12:25;102914.06;;;-3.17;77.89
76260;BME280;65076;52.362;6.588;2022-12-18T01:14:53;102906.50;;;-3.08;77.08
76260;BME280;65076;52.362;6.588;2022-12-18T01:17:21;102912.44;;;-3.14;76.97
76260;BME280;65076;52.362;6.588;2022-12-18T01:19:49;102907.88;;;-3.18;76.18
76260;BME280;65076;52.362;6.588;2022-12-18T01:22:18;102913.78;;;-3.03;76.18
76260;BME280;65076;52.362;6.588;2022-12-18T01:24:46;102919.38;;;-3.38;76.40
76260;BME280;65076;52.362;6.588;2022-12-18T01:27:14;102917.69;;;-3.15;76.41
76260;BME280;65076;52.362;6.588;2022-12-18T01:29:42;102908.63;;;-3.63;77.15
76260;BME280;65076;52.362;6.588;2022-12-18T01:32:10;102920.03;;;-3.44;76.60
76260;BME280;65076;52.362;6.588;2022-12-18T01:34:38;102916.00;;;-3.56;75.82
76260;BME280;65076;52.362;6.588;2022-12-18T01:37:06;102917.91;;;-3.31;75.80
76260;BME280;65076;52.362;6.588;2022-12-18T01:39:35;102923.78;;;-3.38;75.87
76260;BME280;65076;52.362;6.588;2022-12-18T01:42:09;102919.66;;;-3.32;75.27
76260;BME280;65076;52.362;6.588;2022-12-18T01:45:00;102910.69;;;-3.35;74.75
76260;BME280;65076;52.362;6.588;2022-12-18T01:47:37;102913.19;;;-3.38;74.66
76260;BME280;65076;52.362;6.588;2022-12-18T01:50:13;102927.59;;;-3.32;74.34
76260;BME280;65076;52.362;6.588;2022-12-18T01:52:47;102930.09;;;-3.56;74.81
76260;BME280;65076;52.362;6.588;2022-12-18T01:55:20;102954.47;;;-3.83;75.54
76260;BME280;65076;52.362;6.588;2022-12-18T01:57:53;102949.41;;;-3.58;75.43
76260;BME280;65076;52.362;6.588;2022-12-18T02:00:23;102936.81;;;-3.43;74.38
76260;BME280;65076;52.362;6.588;2022-12-18T02:02:54;102948.09;;;-3.68;74.52
76260;BME280;65076;52.362;6.588;2022-12-18T02:05:29;102941.09;;;-3.47;74.78
76260;BME280;65076;52.362;6.588;2022-12-18T02:08:10;102943.16;;;-3.79;75.22
76260;BME280;65076;52.362;6.588;2022-12-18T02:10:47;102942.03;;;-3.65;74.77
76260;BME280;65076;52.362;6.588;2022-12-18T02:13:33;102942.94;;;-3.65;75.37
76260;BME280;65076;52.362;6.588;2022-12-18T02:16:13;102935.44;;;-3.54;75.10
76260;BME280;65076;52.362;6.588;2022-12-18T02:18:51;102935.53;;;-3.53;74.51
76260;BME280;65076;52.362;6.588;2022-12-18T02:21:32;102927.66;;;-3.51;74.62
76260;BME280;65076;52.362;6.588;2022-12-18T02:24:17;102929.25;;;-3.75;74.17
76260;BME280;65076;52.362;6.588;2022-12-18T02:26:58;102928.72;;;-4.07;75.07
76260;BME280;65076;52.362;6.588;2022-12-18T02:29:34;102915.50;;;-3.88;75.79
76260;BME280;65076;52.362;6.588;2022-12-18T02:32:09;102912.97;;;-3.85;75.00
76260;BME280;65076;52.362;6.588;2022-12-18T02:34:43;102925.53;;;-4.00;75.74
76260;BME280;65076;52.362;6.588;2022-12-18T02:37:16;102934.41;;;-3.78;75.05
76260;BME280;65076;52.362;6.588;2022-12-18T02:39:47;102936.44;;;-3.52;73.52
76260;BME280;65076;52.362;6.588;2022-12-18T02:42:18;102929.50;;;-3.69;74.38
76260;BME280;65076;52.362;6.588;2022-12-18T02:44:48;102930.75;;;-3.40;73.82
76260;BME280;65076;52.362;6.588;2022-12-18T02:47:19;102934.41;;;-3.98;73.28
76260;BME280;65076;52.362;6.588;2022-12-18T02:49:55;102930.84;;;-3.79;73.71
76260;BME280;65076;52.362;6.588;2022-12-18T02:52:34;102938.81;;;-3.98;75.13
76260;BME280;65076;52.362;6.588;2022-12-18T02:55:16;102937.97;;;-3.97;74.24
76260;BME280;65076;52.362;6.588;2022-12-18T02:57:54;102938.59;;;-3.83;75.03
76260;BME280;65076;52.362;6.588;2022-12-18T03:00:29;102936.84;;;-3.83;74.35
76260;BME280;65076;52.362;6.588;2022-12-18T03:03:07;102938.50;;;-3.85;74.66
76260;BME280;65076;52.362;6.588;2022-12-18T03:05:47;102936.03;;;-3.61;73.95
76260;BME280;65076;52.362;6.588;2022-12-18T03:08:22;102948.03;;;-3.69;73.48
76260;BME280;65076;52.362;6.588;2022-12-18T03:10:54;102936.47;;;-3.71;72.76
76260;BME280;65076;52.362;6.588;2022-12-18T03:13:32;102939.50;;;-3.83;73.17
76260;BME280;65076;52.362;6.588;2022-12-18T03:16:06;102935.13;;;-3.82;73.69
76260;BME280;65076;52.362;6.588;2022-12-18T03:18:42;102934.66;;;-3.93;73.56
76260;BME280;65076;52.362;6.588;2022-12-18T03:21:21;102925.84;;;-3.92;73.64
76260;BME280;65076;52.362;6.588;2022-12-18T03:23:54;102927.34;;;-3.99;73.76
76260;BME280;65076;52.362;6.588;2022-12-18T03:26:25;102925.69;;;-4.16;73.85
76260;BME280;65076;52.362;6.588;2022-12-18T03:29:02;102916.25;;;-3.90;73.73
76260;BME280;65076;52.362;6.588;2022-12-18T03:31:33;102916.47;;;-3.86;73.13
76260;BME280;65076;52.362;6.588;2022-12-18T03:34:09;102912.66;;;-4.11;73.56
76260;BME280;65076;52.362;6.588;2022-12-18T03:36:41;102907.59;;;-4.26;74.52
76260;BME280;65076;52.362;6.588;2022-12-18T03:39:11;102889.75;;;-3.92;74.32
76260;BME280;65076;52.362;6.588;2022-12-18T03:41:43;102890.78;;;-4.09;74.50
76260;BME280;65076;52.362;6.588;2022-12-18T03:44:25;102893.19;;;-4.13;74.58
76260;BME280;65076;52.362;6.588;2022-12-18T03:47:02;102888.28;;;-4.25;75.10
76260;BME280;65076;52.362;6.588;2022-12-18T03:49:35;102892.50;;;-4.67;75.96
76260;BME280;65076;52.362;6.588;2022-12-18T03:52:10;102897.75;;;-4.30;75.82
76260;BME280;65076;52.362;6.588;2022-12-18T03:54:45;102906.00;;;-4.22;75.64
76260;BME280;65076;52.362;6.588;2022-12-18T03:57:16;102907.72;;;-4.23;74.27
76260;BME280;65076;52.362;6.588;2022-12-18T03:59:55;102900.03;;;-4.38;75.74
76260;BME280;65076;52.362;6.588;2022-12-18T04:02:27;102897.59;;;-4.14;74.13
76260;BME280;65076;52.362;6.588;2022-12-18T04:05:00;102905.66;;;-4.11;74.62
76260;BME280;65076;52.362;6.588;2022-12-18T04:07:32;102901.63;;;-4.22;74.64
76260;BME280;65076;52.362;6.588;2022-12-18T04:10:02;102901.97;;;-4.14;74.63
76260;BME280;65076;52.362;6.588;2022-12-18T04:12:33;102890.34;;;-4.18;73.96
76260;BME280;65076;52.362;6.588;2022-12-18T04:15:03;102898.53;;;-4.12;74.73
76260;BME280;65076;52.362;6.588;2022-12-18T04:17:32;102891.22;;;-4.19;75.16
76260;BME280;65076;52.362;6.588;2022-12-18T04:20:00;102893.91;;;-4.37;75.67
76260;BME280;65076;52.362;6.588;2022-12-18T04:22:28;102891.41;;;-4.14;74.76
76260;BME280;65076;52.362;6.588;2022-12-18T04:24:56;102883.03;;;-4.04;73.95
76260;BME280;65076;52.362;6.588;2022-12-18T04:27:24;102891.41;;;-4.14;73.96
76260;BME280;65076;52.362;6.588;2022-12-18T04:29:51;102893.69;;;-4.22;74.05
76260;BME280;65076;52.362;6.588;2022-12-18T04:32:21;102886.28;;;-3.91;74.76
76260;BME280;65076;52.362;6.588;2022-12-18T04:34:49;102888.19;;;-4.07;73.72
76260;BME280;65076;52.362;6.588;2022-12-18T04:37:16;102886.19;;;-4.32;74.54
76260;BME280;65076;52.362;6.588;2022-12-18T04:39:44;102882.91;;;-3.87;73.60
76260;BME280;65076;52.362;6.588;2022-12-18T04:42:12;102874.94;;;-3.88;73.31
76260;BME280;65076;52.362;6.588;2022-12-18T04:44:40;102872.00;;;-3.32;72.25
76260;BME280;65076;52.362;6.588;2022-12-18T04:47:08;102878.03;;;-3.98;72.70
76260;BME280;65076;52.362;6.588;2022-12-18T04:49:37;102863.84;;;-3.79;72.72
76260;BME280;65076;52.362;6.588;2022-12-18T04:52:06;102862.03;;;-3.80;73.36
76260;BME280;65076;52.362;6.588;2022-12-18T04:54:34;102860.66;;;-3.71;72.81
76260;BME280;65076;52.362;6.588;2022-12-18T04:57:01;102859.19;;;-3.44;71.91
76260;BME280;65076;52.362;6.588;2022-12-18T04:59:29;102855.38;;;-3.50;72.62
76260;BME280;65076;52.362;6.588;2022-12-18T05:01:57;102849.13;;;-3.52;72.09
76260;BME280;65076;52.362;6.588;2022-12-18T05:04:25;102863.31;;;-3.50;71.23
76260;BME280;65076;52.362;6.588;2022-12-18T05:06:55;102866.09;;;-3.68;72.09
76260;BME280;65076;52.362;6.588;2022-12-18T05:09:22;102858.91;;;-3.50;71.52
76260;BME280;65076;52.362;6.588;2022-12-18T05:11:50;102861.31;;;-3.35;71.72
76260;BME280;65076;52.362;6.588;2022-12-18T05:14:18;102864.38;;;-3.02;70.89
76260;BME280;65076;52.362;6.588;2022-12-18T05:16:47;102875.28;;;-3.17;69.61
76260;BME280;65076;52.362;6.588;2022-12-18T05:19:14;102873.66;;;-3.35;69.45
76260;BME280;65076;52.362;6.588;2022-12-18T05:21:44;102870.34;;;-3.30;70.85
76260;BME280;65076;52.362;6.588;2022-12-18T05:24:13;102881.91;;;-3.49;70.85
76260;BME280;65076;52.362;6.588;2022-12-18T05:26:41;102876.25;;;-3.15;70.01
76260;BME280;65076;52.362;6.588;2022-12-18T05:29:09;102879.13;;;-3.09;69.30
76260;BME280;65076;52.362;6.588;2022-12-18T05:31:39;102873.59;;;-2.92;69.12
76260;BME280;65076;52.362;6.588;2022-12-18T05:34:08;102882.13;;;-3.22;68.94
76260;BME280;65076;52.362;6.588;2022-12-18T05:36:37;102879.50;;;-3.00;69.43
76260;BME280;65076;52.362;6.588;2022-12-18T05:39:05;102879.63;;;-2.96;68.77
76260;BME280;65076;52.362;6.588;2022-12-18T05:41:34;102881.66;;;-2.89;68.80
76260;BME280;65076;52.362;6.588;2022-12-18T05:44:02;102886.59;;;-3.21;68.65
76260;BME280;65076;52.362;6.588;2022-12-18T05:46:31;102893.81;;;-3.17;69.54
76260;BME280;65076;52.362;6.588;2022-12-18T05:49:00;102893.41;;;-3.05;68.62
76260;BME280;65076;52.362;6.588;2022-12-18T05:51:28;102900.16;;;-3.34;68.59
76260;BME280;65076;52.362;6.588;2022-12-18T05:53:56;102906.28;;;-3.56;69.51
76260;BME280;65076;52.362;6.588;2022-12-18T05:56:24;102917.31;;;-3.45;69.76
76260;BME280;65076;52.362;6.588;2022-12-18T05:58:53;102912.47;;;-3.76;69.57
76260;BME280;65076;52.362;6.588;2022-12-18T06:01:24;102910.94;;;-3.50;69.00
76260;BME280;65076;52.362;6.588;2022-12-18T06:03:53;102914.63;;;-3.47;68.18
76260;BME280;65076;52.362;6.588;2022-12-18T06:06:24;102914.94;;;-3.39;68.16
76260;BME280;65076;52.362;6.588;2022-12-18T06:08:55;102916.03;;;-3.34;68.11
76260;BME280;65076;52.362;6.588;2022-12-18T06:11:25;102919.84;;;-3.48;67.69
76260;BME280;65076;52.362;6.588;2022-12-18T06:13:56;102917.06;;;-3.72;68.46
76260;BME280;65076;52.362;6.588;2022-12-18T06:16:27;102928.03;;;-3.42;67.71
76260;BME280;65076;52.362;6.588;2022-12-18T06:18:56;102925.78;;;-3.54;68.37
76260;BME280;65076;52.362;6.588;2022-12-18T06:21:25;102933.41;;;-3.40;68.17
76260;BME280;65076;52.362;6.588;2022-12-18T06:23:53;102922.41;;;-3.50;67.66
76260;BME280;65076;52.362;6.588;2022-12-18T06:26:22;102928.94;;;-3.42;67.92
76260;BME280;65076;52.362;6.588;2022-12-18T06:28:54;102923.31;;;-3.70;67.85
76260;BME280;65076;52.362;6.588;2022-12-18T06:31:24;102923.28;;;-4.67;70.27
76260;BME280;65076;52.362;6.588;2022-12-18T06:33:52;102926.94;;;-4.27;72.01
76260;BME280;65076;52.362;6.588;2022-12-18T06:36:20;102927.53;;;-3.94;70.67
76260;BME280;65076;52.362;6.588;2022-12-18T06:38:48;102921.63;;;-3.89;70.02
76260;BME280;65076;52.362;6.588;2022-12-18T06:41:19;102917.59;;;-4.00;69.23
76260;BME280;65076;52.362;6.588;2022-12-18T06:43:48;102910.91;;;-5.23;73.62
76260;BME280;65076;52.362;6.588;2022-12-18T06:46:21;102902.41;;;-4.24;71.50
76260;BME280;65076;52.362;6.588;2022-12-18T06:48:49;102899.38;;;-4.13;70.39
76260;BME280;65076;52.362;6.588;2022-12-18T06:51:19;102895.09;;;-4.49;71.03
76260;BME280;65076;52.362;6.588;2022-12-18T06:53:48;102886.06;;;-3.95;70.19
76260;BME280;65076;52.362;6.588;2022-12-18T06:56:16;102888.38;;;-4.03;70.13
76260;BME280;65076;52.362;6.588;2022-12-18T06:58:44;102876.25;;;-3.98;70.31
76260;BME280;65076;52.362;6.588;2022-12-18T07:01:12;102874.59;;;-3.96;71.13
76260;BME280;65076;52.362;6.588;2022-12-18T07:03:43;102877.06;;;-3.59;70.13
76260;BME280;65076;52.362;6.588;2022-12-18T07:06:16;102870.56;;;-3.46;70.13
76260;BME280;65076;52.362;6.588;2022-12-18T07:08:46;102870.75;;;-3.42;69.69
76260;BME280;65076;52.362;6.588;2022-12-18T07:11:16;102861.53;;;-3.29;69.06
76260;BME280;65076;52.362;6.588;2022-12-18T07:13:45;102866.59;;;-3.35;69.90
76260;BME280;65076;52.362;6.588;2022-12-18T07:16:15;102857.69;;;-3.37;70.90
76260;BME280;65076;52.362;6.588;2022-12-18T07:18:52;102854.94;;;-3.81;71.90
76260;BME280;65076;52.362;6.588;2022-12-18T07:21:22;102851.25;;;-3.64;72.94
76260;BME280;65076;52.362;6.588;2022-12-18T07:23:51;102847.91;;;-3.60;72.23
76260;BME280;65076;52.362;6.588;2022-12-18T07:26:20;102846.75;;;-3.67;72.53
76260;BME280;65076;52.362;6.588;2022-12-18T07:28:49;102842.31;;;-3.89;73.64
76260;BME280;65076;52.362;6.588;2022-12-18T07:31:20;102849.00;;;-3.55;73.31
76260;BME280;65076;52.362;6.588;2022-12-18T07:33:49;102852.25;;;-3.83;73.10
76260;BME280;65076;52.362;6.588;2022-12-18T07:36:19;102857.72;;;-3.78;72.81
76260;BME280;65076;52.362;6.588;2022-12-18T07:38:48;102862.06;;;-3.37;72.60
76260;BME280;65076;52.362;6.588;2022-12-18T07:41:18;102869.66;;;-3.67;72.79
76260;BME280;65076;52.362;6.588;2022-12-18T07:43:46;102857.56;;;-3.40;72.95
76260;BME280;65076;52.362;6.588;2022-12-18T07:46:15;102866.50;;;-3.16;71.87
76260;BME280;65076;52.362;6.588;2022-12-18T07:48:44;102860.50;;;-2.89;70.50
76260;BME280;65076;52.362;6.588;2022-12-18T07:51:17;102873.25;;;-2.79;70.84
76260;BME280;65076;52.362;6.588;2022-12-18T07:53:45;102869.16;;;-2.93;70.62
76260;BME280;65076;52.362;6.588;2022-12-18T07:56:17;102865.97;;;-2.85;70.66
76260;BME280;65076;52.362;6.588;2022-12-18T07:58:56;102859.41;;;-2.72;70.11
76260;BME280;65076;52.362;6.588;2022-12-18T08:01:24;102854.56;;;-2.82;69.25
76260;BME280;65076;52.362;6.588;2022-12-18T08:03:54;102865.13;;;-2.60;69.39
76260;BME280;65076;52.362;6.588;2022-12-18T08:06:23;102872.44;;;-2.31;69.42
76260;BME280;65076;52.362;6.588;2022-12-18T08:08:52;102863.06;;;-2.69;68.94
76260;BME280;65076;52.362;6.588;2022-12-18T08:11:21;102852.50;;;-2.20;68.24
76260;BME280;65076;52.362;6.588;2022-12-18T08:13:50;102844.09;;;-1.83;66.55
76260;BME280;65076;52.362;6.588;2022-12-18T08:16:19;102829.16;;;-1.54;66.49
76260;BME280;65076;52.362;6.588;2022-12-18T08:18:47;102840.69;;;-2.04;65.28
76260;BME280;65076;52.362;6.588;2022-12-18T08:21:17;102841.16;;;-1.65;65.85
76260;BME280;65076;52.362;6.588;2022-12-18T08:23:49;102844.00;;;-2.35;67.12
76260;BME280;65076;52.362;6.588;2022-12-18T08:26:18;102841.50;;;-2.06;67.85
76260;BME280;65076;52.362;6.588;2022-12-18T08:28:47;102837.03;;;-2.57;67.95
76260;BME280;65076;52.362;6.588;2022-12-18T08:31:16;102834.59;;;-1.76;67.19
76260;BME280;65076;52.362;6.588;2022-12-18T08:33:48;102826.00;;;-1.69;66.39
76260;BME280;65076;52.362;6.588;2022-12-18T08:36:17;102821.19;;;-2.06;66.40
76260;BME280;65076;52.362;6.588;2022-12-18T08:38:45;102818.94;;;-2.19;66.87
76260;BME280;65076;52.362;6.588;2022-12-18T08:41:16;102813.00;;;-2.61;68.46
76260;BME280;65076;52.362;6.588;2022-12-18T08:43:45;102815.50;;;-2.17;68.46
76260;BME280;65076;52.362;6.588;2022-12-18T08:46:34;102826.13;;;-2.17;67.19
76260;BME280;65076;52.362;6.588;2022-12-18T08:49:03;102831.97;;;-2.01;67.48
76260;BME280;65076;52.362;6.588;2022-12-18T08:51:33;102828.84;;;-1.88;67.15
76260;BME280;65076;52.362;6.588;2022-12-18T08:54:02;102824.22;;;-1.95;67.45
76260;BME280;65076;52.362;6.588;2022-12-18T08:56:33;102815.03;;;-1.26;65.84
76260;BME280;65076;52.362;6.588;2022-12-18T08:59:02;102819.72;;;-0.89;64.36
76260;BME280;65076;52.362;6.588;2022-12-18T09:01:30;102814.22;;;-0.65;63.68
76260;BME280;65076;52.362;6.588;2022-12-18T09:03:59;102803.31;;;-0.45;63.11
76260;BME280;65076;52.362;6.588;2022-12-18T09:06:27;102804.56;;;-0.62;62.53
76260;BME280;65076;52.362;6.588;2022-12-18T09:08:57;102804.47;;;-0.35;62.39
76260;BME280;65076;52.362;6.588;2022-12-18T09:11:27;102799.22;;;-0.01;61.67
76260;BME280;65076;52.362;6.588;2022-12-18T09:13:57;102804.41;;;-0.36;62.75
76260;BME280;65076;52.362;6.588;2022-12-18T09:16:28;102808.53;;;-0.16;62.61
76260;BME280;65076;52.362;6.588;2022-12-18T09:19:10;102811.28;;;-0.13;62.18
76260;BME280;65076;52.362;6.588;2022-12-18T09:21:38;102824.84;;;-0.03;62.48
76260;BME280;65076;52.362;6.588;2022-12-18T09:24:14;102820.88;;;-0.18;62.32
76260;BME280;65076;52.362;6.588;2022-12-18T09:26:43;102814.97;;;0.26;62.35
76260;BME280;65076;52.362;6.588;2022-12-18T09:29:14;102821.22;;;-0.06;62.68
76260;BME280;65076;52.362;6.588;2022-12-18T09:31:50;102801.28;;;0.46;61.03
76260;BME280;65076;52.362;6.588;2022-12-18T09:34:18;102800.53;;;0.51;60.86
76260;BME280;65076;52.362;6.588;2022-12-18T09:36:48;102785.56;;;0.20;61.77
76260;BME280;65076;52.362;6.588;2022-12-18T09:39:16;102784.28;;;0.06;61.98
76260;BME280;65076;52.362;6.588;2022-12-18T09:41:51;102789.94;;;-0.15;62.70
76260;BME280;65076;52.362;6.588;2022-12-18T09:44:26;102790.50;;;0.05;62.66
76260;BME280;65076;52.362;6.588;2022-12-18T09:47:03;102788.56;;;-0.01;62.56
76260;BME280;65076;52.362;6.588;2022-12-18T09:49:40;102783.75;;;0.19;61.66
76260;BME280;65076;52.362;6.588;2022-12-18T09:52:17;102784.59;;;0.18;62.75
76260;BME280;65076;52.362;6.588;2022-12-18T09:54:52;102788.97;;;0.15;62.21
76260;BME280;65076;52.362;6.588;2022-12-18T09:57:25;102798.59;;;0.11;62.90
76260;BME280;65076;52.362;6.588;2022-12-18T09:59:59;102806.44;;;0.05;62.91
76260;BME280;65076;52.362;6.588;2022-12-18T10:02:31;102806.84;;;0.20;62.52
76260;BME280;65076;52.362;6.588;2022-12-18T10:05:05;102794.13;;;0.45;62.51
76260;BME280;65076;52.362;6.588;2022-12-18T10:07:43;102789.75;;;0.47;62.61
76260;BME280;65076;52.362;6.588;2022-12-18T10:10:32;102787.75;;;0.36;61.86
76260;BME280;65076;52.362;6.588;2022-12-18T10:13:11;102775.44;;;0.43;62.17
76260;BME280;65076;52.362;6.588;2022-12-18T10:16:09;102768.69;;;0.21;62.90
76260;BME280;65076;52.362;6.588;2022-12-18T10:18:58;102748.41;;;0.25;62.88
76260;BME280;65076;52.362;6.588;2022-12-18T10:21:42;102740.78;;;0.40;62.91
76260;BME280;65076;52.362;6.588;2022-12-18T10:24:28;102734.59;;;0.41;63.03
76260;BME280;65076;52.362;6.588;2022-12-18T10:27:11;102716.13;;;0.47;62.51
76260;BME280;65076;52.362;6.588;2022-12-18T10:29:42;102718.63;;;0.42;62.73
76260;BME280;65076;52.362;6.588;2022-12-18T10:32:15;102710.66;;;0.42;62.70
76260;BME280;65076;52.362;6.588;2022-12-18T10:34:46;102692.00;;;0.42;62.79
76260;BME280;65076;52.362;6.588;2022-12-18T10:37:17;102687.03;;;0.56;63.60
76260;BME280;65076;52.362;6.588;2022-12-18T10:39:46;102687.69;;;0.46;63.10
76260;BME280;65076;52.362;6.588;2022-12-18T10:42:34;102694.72;;;0.83;61.93
76260;BME280;65076;52.362;6.588;2022-12-18T10:45:07;102686.91;;;0.92;61.92
76260;BME280;65076;52.362;6.588;2022-12-18T10:47:43;102687.63;;;0.85;61.60
76260;BME280;65076;52.362;6.588;2022-12-18T10:50:24;102689.41;;;0.84;60.80
76260;BME280;65076;52.362;6.588;2022-12-18T10:53:19;102690.69;;;1.05;61.10
76260;BME280;65076;52.362;6.588;2022-12-18T10:55:49;102675.22;;;1.29;60.24
76260;BME280;65076;52.362;6.588;2022-12-18T10:58:25;102665.53;;;1.34;60.89
76260;BME280;65076;52.362;6.588;2022-12-18T11:01:04;102658.34;;;1.30;60.74
76260;BME280;65076;52.362;6.588;2022-12-18T11:03:40;102657.94;;;1.10;61.06
76260;BME280;65076;52.362;6.588;2022-12-18T11:06:12;102668.13;;;1.31;60.71
76260;BME280;65076;52.362;6.588;2022-12-18T11:08:43;102664.78;;;1.41;60.10
76260;BME280;65076;52.362;6.588;2022-12-18T11:11:24;102656.28;;;1.62;60.23
76260;BME280;65076;52.362;6.588;2022-12-18T11:13:58;102658.88;;;1.12;60.46
76260;BME280;65076;52.362;6.588;2022-12-18T11:16:31;102656.88;;;1.46;60.19
76260;BME280;65076;52.362;6.588;2022-12-18T11:19:20;102658.81;;;1.56;59.70
76260;BME280;65076;52.362;6.588;2022-12-18T11:21:53;102641.78;;;1.48;60.24
76260;BME280;65076;52.362;6.588;2022-12-18T11:24:26;102637.06;;;1.83;59.87
76260;BME280;65076;52.362;6.588;2022-12-18T11:26:58;102628.56;;;2.08;59.14
76260;BME280;65076;52.362;6.588;2022-12-18T11:29:32;102628.59;;;2.11;58.69
76260;BME280;65076;52.362;6.588;2022-12-18T11:35:16;102638.16;;;1.97;58.29
76260;BME280;65076;52.362;6.588;2022-12-18T11:37:49;102643.84;;;2.18;58.51
76260;BME280;65076;52.362;6.588;2022-12-18T11:40:29;102641.44;;;2.38;58.12
76260;BME280;65076;52.362;6.588;2022-12-18T11:43:09;102631.84;;;2.52;58.71
76260;BME280;65076;52.362;6.588;2022-12-18T11:45:43;102626.34;;;2.40;57.00
76260;BME280;65076;52.362;6.588;2022-12-18T11:48:21;102617.59;;;2.50;57.32
76260;BME280;65076;52.362;6.588;2022-12-18T11:50:54;102614.19;;;2.63;57.20
76260;BME280;65076;52.362;6.588;2022-12-18T11:53:25;102627.47;;;2.55;56.16
76260;BME280;65076;52.362;6.588;2022-12-18T11:56:04;102624.16;;;2.76;57.11
76260;BME280;65076;52.362;6.588;2022-12-18T11:58:51;102617.75;;;2.64;57.02
76260;BME280;65076;52.362;6.588;2022-12-18T12:01:44;102609.63;;;2.54;56.75
76260;BME280;65076;52.362;6.588;2022-12-18T12:04:31;102603.81;;;2.21;56.54
76260;BME280;65076;52.362;6.588;2022-12-18T12:07:31;102602.66;;;2.66;56.81
76260;BME280;65076;52.362;6.588;2022-12-18T12:10:18;102606.09;;;2.55;57.79
76260;BME280;65076;52.362;6.588;2022-12-18T12:13:19;102602.75;;;2.08;57.27
76260;BME280;65076;52.362;6.588;2022-12-18T12:16:09;102599.59;;;2.37;57.49
76260;BME280;65076;52.362;6.588;2022-12-18T12:18:59;102585.34;;;2.38;56.06
76260;BME280;65076;52.362;6.588;2022-12-18T12:21:40;102568.41;;;2.34;56.93
76260;BME280;65076;52.362;6.588;2022-12-18T12:24:22;102561.94;;;2.17;58.10
76260;BME280;65076;52.362;6.588;2022-12-18T12:27:09;102558.00;;;2.57;57.45
76260;BME280;65076;52.362;6.588;2022-12-18T12:29:50;102552.31;;;2.31;57.28
76260;BME280;65076;52.362;6.588;2022-12-18T12:32:38;102541.63;;;2.31;57.55
76260;BME280;65076;52.362;6.588;2022-12-18T12:35:21;102544.53;;;2.48;56.76
76260;BME280;65076;52.362;6.588;2022-12-18T12:38:06;102549.63;;;2.28;56.70
76260;BME280;65076;52.362;6.588;2022-12-18T12:40:44;102543.13;;;2.08;57.88
76260;BME280;65076;52.362;6.588;2022-12-18T12:43:32;102540.59;;;2.19;56.99
76260;BME280;65076;52.362;6.588;2022-12-18T12:46:11;102534.47;;;2.27;57.26
76260;BME280;65076;52.362;6.588;2022-12-18T12:48:43;102532.59;;;2.20;56.69
76260;BME280;65076;52.362;6.588;2022-12-18T12:51:18;102527.38;;;2.28;56.46
76260;BME280;65076;52.362;6.588;2022-12-18T12:53:49;102537.97;;;2.22;56.92
76260;BME280;65076;52.362;6.588;2022-12-18T12:56:20;102523.78;;;2.27;56.05
76260;BME280;65076;52.362;6.588;2022-12-18T12:58:58;102521.25;;;2.38;57.24
76260;BME280;65076;52.362;6.588;2022-12-18T13:01:37;102516.94;;;2.46;55.66
76260;BME280;65076;52.362;6.588;2022-12-18T13:04:21;102506.16;;;2.41;55.78
76260;BME280;65076;52.362;6.588;2022-12-18T13:06:59;102507.84;;;2.33;55.82
76260;BME280;65076;52.362;6.588;2022-12-18T13:09:32;102507.13;;;2.45;55.90
76260;BME280;65076;52.362;6.588;2022-12-18T13:12:11;102511.47;;;2.38;55.38
76260;BME280;65076;52.362;6.588;2022-12-18T13:15:12;102514.91;;;2.28;57.01
76260;BME280;65076;52.362;6.588;2022-12-18T13:17:47;102514.84;;;2.24;56.60
76260;BME280;65076;52.362;6.588;2022-12-18T13:20:16;102516.78;;;2.35;56.93
76260;BME280;65076;52.362;6.588;2022-12-18T13:22:47;102511.78;;;2.67;55.40
76260;BME280;65076;52.362;6.588;2022-12-18T13:25:35;102502.72;;;2.50;55.30